createdAt,value
2018-07-28T00:03:29.553Z,25.20
2018-07-28T00:08:34.522Z,25.20
2018-07-28T00:18:44.503Z,25.10
2018-07-28T00:23:52.953Z,25.10
2018-07-28T00:29:00.554Z,25.00
2018-07-28T00:34:04.952Z,25.00
2018-07-28T00:39:13.434Z,25.00
2018-07-28T00:44:16.905Z,25.00
2018-07-28T00:49:22.502Z,24.90
2018-07-28T00:54:25.660Z,24.80
2018-07-28T00:59:29.628Z,24.80
2018-07-28T01:04:34.613Z,24.70
2018-07-28T01:09:40.798Z,24.60
2018-07-28T01:19:48.003Z,24.50
2018-07-28T01:24:51.848Z,24.40
2018-07-28T01:29:58.294Z,24.40
2018-07-28T01:35:05.357Z,24.30
2018-07-28T01:40:09.631Z,24.20
2018-07-28T01:45:14.395Z,24.10
2018-07-28T01:50:24.085Z,24.10
2018-07-28T01:55:27.337Z,24.00
2018-07-28T02:00:30.348Z,23.80
2018-07-28T02:05:37.068Z,23.70
2018-07-28T02:10:40.404Z,23.70
2018-07-28T02:15:44.531Z,23.70
2018-07-28T02:20:48.405Z,23.70
2018-07-28T02:25:51.899Z,23.70
2018-07-28T02:30:56.241Z,23.50
2018-07-28T02:36:00.134Z,23.30
2018-07-28T02:41:03.161Z,23.20
2018-07-28T02:46:07.094Z,23.20
2018-07-28T02:51:10.385Z,23.10
2018-07-28T02:56:14.577Z,23.00
2018-07-28T03:01:17.907Z,23.00
2018-07-28T03:06:21.132Z,22.90
2018-07-28T03:11:26.982Z,22.80
2018-07-28T03:16:31.433Z,22.80
2018-07-28T03:21:36.481Z,22.80
2018-07-28T03:26:40.576Z,22.80
2018-07-28T03:31:43.739Z,22.90
2018-07-28T03:36:46.873Z,22.80
2018-07-28T03:41:49.961Z,22.80
2018-07-28T03:46:53.228Z,22.80
2018-07-28T03:51:56.621Z,22.70
2018-07-28T03:56:59.716Z,22.70
2018-07-28T04:02:02.805Z,22.70
2018-07-28T04:12:09.756Z,22.80
2018-07-28T04:17:13.497Z,22.80
2018-07-28T04:22:18.680Z,22.80
2018-07-28T04:27:22.638Z,22.80
2018-07-28T04:32:26.290Z,22.80
2018-07-28T04:37:29.390Z,22.90
2018-07-28T04:42:33.890Z,23.00
2018-07-28T04:47:39.858Z,23.20
2018-07-28T04:52:44.018Z,23.30
2018-07-28T04:57:49.706Z,23.50
2018-07-28T05:02:57.001Z,23.80
2018-07-28T05:08:02.170Z,24.00
2018-07-28T05:13:05.637Z,24.20
2018-07-28T05:18:13.458Z,24.40
2018-07-28T05:23:20.410Z,24.60
2018-07-28T05:28:23.729Z,24.80
2018-07-28T05:33:28.720Z,25.00
2018-07-28T05:38:34.862Z,25.20
2018-07-28T05:43:38.948Z,25.50
2018-07-28T05:53:46.779Z,25.90
2018-07-28T05:58:52.876Z,26.10
2018-07-28T06:08:59.602Z,26.60
2018-07-28T06:14:02.806Z,26.60
2018-07-28T06:19:06.347Z,26.70
2018-07-28T06:24:09.883Z,26.80
2018-07-28T06:29:13.005Z,26.90
2018-07-28T06:34:16.113Z,27.10
2018-07-28T06:39:20.065Z,27.20
2018-07-28T06:44:27.246Z,27.40
2018-07-28T06:49:31.918Z,27.50
2018-07-28T06:54:35.056Z,27.60
2018-07-28T06:59:38.189Z,27.80
2018-07-28T07:04:41.339Z,27.90
2018-07-28T07:15:14.385Z,28.10
2018-07-28T07:20:18.468Z,28.20
2018-07-28T07:25:25.195Z,28.30
2018-07-28T07:30:31.494Z,28.50
2018-07-28T07:35:36.913Z,28.70
2018-07-28T07:40:49.292Z,28.90
2018-07-28T07:51:39.546Z,29.10
2018-07-28T08:18:22.334Z,30.00
2018-07-28T08:23:29.024Z,30.20
2018-07-28T08:28:35.277Z,30.30
2018-07-28T08:33:42.591Z,30.40
2018-07-28T08:38:53.065Z,30.60
2018-07-28T08:44:00.459Z,30.70
2018-07-28T08:49:05.936Z,30.60
2018-07-28T08:54:09.449Z,30.60
2018-07-28T09:04:37.778Z,30.50
2018-07-28T09:09:41.146Z,30.50
2018-07-28T09:14:46.604Z,30.40
2018-07-28T09:19:49.861Z,30.40
2018-07-28T09:24:53.733Z,30.40
2018-07-28T09:29:58.989Z,30.40
2018-07-28T09:35:05.007Z,30.40
2018-07-28T09:40:09.274Z,30.40
2018-07-28T09:45:12.297Z,30.50
2018-07-28T09:50:19.744Z,30.60
2018-07-28T09:55:23.940Z,30.60
2018-07-28T10:00:37.877Z,30.70
2018-07-28T10:05:45.485Z,30.60
2018-07-28T10:10:50.177Z,30.50
2018-07-28T10:15:57.294Z,30.40
2018-07-28T10:21:01.173Z,30.20
2018-07-28T10:26:06.198Z,30.10
2018-07-28T10:31:11.172Z,30.00
2018-07-28T10:36:14.509Z,29.90
2018-07-28T10:41:18.412Z,29.60
2018-07-28T10:46:28.025Z,29.50
2018-07-28T10:51:31.493Z,29.40
2018-07-28T10:56:35.746Z,29.30
2018-07-28T11:01:45.625Z,29.30
2018-07-28T11:06:48.704Z,29.20
2018-07-28T11:11:56.951Z,29.10
2018-07-28T11:17:00.314Z,29.20
2018-07-28T11:22:03.752Z,29.10
2018-07-28T11:27:06.933Z,29.10
2018-07-28T11:32:21.539Z,29.10
2018-07-28T11:37:36.518Z,29.10
2018-07-28T11:42:52.315Z,29.00
2018-07-28T11:47:55.616Z,29.00
2018-07-28T11:53:00.490Z,28.90
2018-07-28T12:13:55.282Z,28.80
2018-07-28T12:18:58.379Z,28.80
2018-07-28T12:24:03.394Z,28.70
2018-07-28T12:29:07.455Z,28.60
2018-07-28T12:34:14.703Z,28.60
2018-07-28T12:39:22.536Z,28.60
2018-07-28T13:05:30.786Z,28.70
2018-07-28T13:10:35.162Z,28.70
2018-07-28T13:15:39.149Z,28.60
2018-07-28T13:20:46.014Z,28.60
2018-07-28T13:31:18.723Z,28.70
2018-07-28T13:36:22.803Z,28.80
2018-07-28T13:41:26.098Z,28.80
2018-07-28T13:50:07.544Z,28.80
2018-07-28T14:00:50.663Z,28.80
2018-07-28T14:05:55.724Z,28.90
2018-07-28T14:11:05.681Z,28.90
2018-07-28T14:16:11.102Z,29.00
2018-07-28T14:21:16.943Z,29.10
2018-07-28T14:26:22.220Z,29.30
2018-07-28T14:31:38.945Z,29.40
2018-07-28T14:42:17.125Z,29.60
2018-07-28T14:52:57.876Z,29.70
2018-07-28T14:58:08.974Z,29.60
2018-07-28T15:08:21.733Z,29.80
2018-07-28T15:13:29.197Z,29.80
2018-07-28T15:18:38.320Z,30.00
2018-07-28T15:23:42.117Z,30.00
2018-07-28T15:28:55.794Z,30.20
2018-07-28T15:34:00.793Z,30.20
2018-07-28T15:39:08.689Z,30.30
2018-07-28T15:44:13.547Z,30.40
2018-07-28T15:49:17.636Z,30.60
2018-07-28T15:54:25.996Z,30.60
2018-07-28T15:59:34.029Z,30.60
2018-07-28T16:04:39.156Z,30.50
2018-07-28T16:09:43.681Z,30.50
2018-07-28T16:14:52.612Z,30.40
2018-07-28T16:20:20.838Z,30.40
2018-07-28T16:25:53.279Z,30.40
2018-07-28T16:31:33.472Z,30.30
2018-07-28T16:37:00.675Z,30.20
2018-07-28T16:42:25.863Z,30.30
2018-07-28T16:47:36.937Z,30.20
2018-07-28T16:58:04.666Z,30.10
2018-07-28T17:03:10.419Z,30.00
2018-07-28T17:13:42.784Z,29.90
2018-07-28T17:18:51.198Z,29.80
2018-07-28T17:23:58.246Z,29.70
2018-07-28T17:34:10.982Z,29.00
2018-07-28T17:39:36.953Z,28.60
2018-07-28T17:44:49.805Z,28.20
2018-07-28T17:50:04.710Z,27.80
2018-07-28T18:00:43.170Z,27.20
2018-07-28T18:05:52.806Z,26.80
2018-07-28T18:10:56.523Z,26.50
2018-07-28T20:37:04.289Z,22.10
2018-07-28T20:42:08.545Z,21.80
2018-07-28T20:47:11.626Z,21.80
2018-07-28T20:52:15.182Z,21.70
2018-07-28T20:57:22.504Z,21.70
2018-07-28T21:02:34.023Z,21.70
2018-07-28T21:07:37.177Z,21.60
2018-07-28T21:12:42.007Z,21.60
2018-07-28T21:17:52.772Z,21.50
2018-07-28T21:22:56.858Z,21.50
2018-07-28T21:33:35.270Z,21.50
2018-07-28T21:38:56.605Z,21.50
2018-07-28T22:09:56.294Z,21.10
2018-07-28T22:25:55.901Z,21.00
2018-07-28T22:58:25.081Z,20.60
2018-07-28T23:25:33.820Z,19.80
2018-07-28T23:30:53.549Z,19.60
